Time;durP1;ratioP1;P1;durP2;ratioP2;P2;SDS_P1;SDS_P2;PMS_P1;PMS_P2;Temp;Humidity;BMP_temperature;BMP_pressure;BME280_temperature;BME280_humidity;BME280_pressure;Samples;Min_cycle;Max_cycle;Signal;HPM_P1;HPM_P2
2023/04/02 00:01:44;;;;;;;;;;;;;;;;;;5055744;28;1088;-72
2023/04/02 00:04:14;;;;;;;;;;;;;;;;;;5055656;28;1886;-72
2023/04/02 00:06:46;;;;;;;;;;;;;;;;;;5073654;28;1076;-72
2023/04/02 00:09:14;;;;;;;;;;;;;;;;;;5073908;28;845;-72
2023/04/02 00:11:43;;;;;;;;;;;;;;;;;;5074109;28;837;-72
2023/04/02 00:14:23;;;;;;;;;;;;;;;;;;5073489;28;1438;-72
2023/04/02 00:16:50;;;;;;;;;;;;;;;;;;5055951;28;1219;-72
2023/04/02 00:19:28;;;;;;;;;;;;;;;;;;5073493;28;809;-72
2023/04/02 00:21:55;;;;;;;;;;;;;;;;;;5073623;28;1066;-72
2023/04/02 00:24:21;;;;;;;;;;;;;;;;;;5073417;28;1898;-71
2023/04/02 00:26:50;;;;;;;;;;;;;;;;;;5056261;28;1302;-72
2023/04/02 00:29:16;;;;;;;;;;;;;;;;;;5055505;28;1203;-72
2023/04/02 00:31:44;;;;;;;;;;;;;;;;;;5055418;28;1187;-71
2023/04/02 00:34:16;;;;;;;;;;;;;;;;;;5073792;28;895;-71
2023/04/02 00:36:42;;;;;;;;;;;;;;;;;;5073438;28;959;-72
2023/04/02 00:39:12;;;;;;;;;;;;;;;;;;5055541;28;1239;-72
2023/04/02 00:41:37;;;;;;;;;;;;;;;;;;5054989;28;1279;-71
2023/04/02 00:44:04;;;;;;;;;;;;;;;;;;5055156;28;1902;-72
2023/04/02 00:46:33;;;;;;;;;;;;;;;;;;5054887;28;1369;-72
2023/04/02 00:49:02;;;;;;;;;;;;;;;;;;5072730;28;848;-71
2023/04/02 00:51:46;;;;;;;;;;;;;;;;;;5054440;28;1534;-72
2023/04/02 00:54:14;;;;;;;;;;;;;;;;;;5073002;28;928;-71
2023/04/02 00:56:42;;;;;;;;;;;;;;;;;;5054522;28;1456;-72
2023/04/02 00:59:16;;;;;;;;;;;;;;;;;;5072834;28;848;-72
2023/04/02 01:01:42;;;;;;;;;;;;;;;;;;5054815;28;1225;-72
2023/04/02 01:04:25;;;;;;;;;;;;;;;;;;5055031;28;1972;-72
2023/04/02 01:06:52;;;;;;;;;;;;;;;;;;5072497;28;940;-72
2023/04/02 01:09:28;;;;;;;;;;;;;;;;;;5054426;28;1415;-71
2023/04/02 01:12:12;;;;;;;;;;;;;;;;;;5072973;28;928;-72
2023/04/02 01:14:50;;;;;;;;;;;;;;;;;;5054496;28;1362;-73
2023/04/02 01:17:21;;;;;;;;;;;;;;;;;;5055347;28;1333;-72
2023/04/02 01:20:07;;;;;;;;;;;;;;;;;;5073554;28;864;-72
2023/04/02 01:22:56;;;;;;;;;;;;;;;;;;5054406;28;1985;-73
2023/04/02 01:25:39;;;;;;;;;;;;;;;;;;5071341;28;1480;-71
2023/04/02 01:28:11;;;;;;;;;;;;;;;;;;5066794;28;1290;-71
2023/04/02 01:30:37;;;;;;;;;;;;;;;;;;5072162;28;1442;-71
2023/04/02 01:33:05;;;;;;;;;;;;;;;;;;5080016;28;1231;-72
2023/04/02 01:35:34;;;;;;;;;;;;;;;;;;5083950;28;1164;-72
2023/04/02 01:38:09;;;;;;;;;;;;;;;;;;5072025;28;1211;-71
2023/04/02 01:40:38;;;;;;;;;;;;;;;;;;5084404;28;1171;-72
2023/04/02 01:43:15;;;;;;;;;;;;;;;;;;5095935;28;1890;-71
2023/04/02 01:45:40;;;;;;;;;;;;;;;;;;5078127;28;1702;-71
2023/04/02 01:48:08;;;;;;;;;;;;;;;;;;5061686;28;1361;-71
2023/04/02 01:50:35;;;;;;;;;;;;;;;;;;5078073;28;1335;-72
2023/04/02 01:53:02;;;;;;;;;;;;;;;;;;5078296;28;1326;-71
2023/04/02 01:55:34;;;;;;;;;;;;;;;;;;5078029;28;1213;-72
2023/04/02 01:58:00;;;;;;;;;;;;;;;;;;5077979;28;1064;-72
2023/04/02 02:00:29;;;;;;;;;;;;;;;;;;5078070;28;833;-72
2023/04/02 02:02:54;;;;;;;;;;;;;;;;;;5095102;28;1965;-71
2023/04/02 02:05:21;;;;;;;;;;;;;;;;;;5104254;28;1259;-71
2023/04/02 02:07:47;;;;;;;;;;;;;;;;;;5098125;28;1231;-72
2023/04/02 02:10:14;;;;;;;;;;;;;;;;;;5116183;28;947;-71
2023/04/02 02:12:40;;;;;;;;;;;;;;;;;;5116026;28;848;-72
2023/04/02 02:15:07;;;;;;;;;;;;;;;;;;5116626;28;836;-71
2023/04/02 02:17:33;;;;;;;;;;;;;;;;;;5116092;28;856;-71
2023/04/02 02:19:59;;;;;;;;;;;;;;;;;;5080912;28;1263;-71
2023/04/02 02:22:30;;;;;;;;;;;;;;;;;;5115633;28;1967;-72
2023/04/02 02:24:56;;;;;;;;;;;;;;;;;;5115757;28;899;-71
2023/04/02 02:27:21;;;;;;;;;;;;;;;;;;5116030;28;824;-72
2023/04/02 02:29:50;;;;;;;;;;;;;;;;;;5097481;28;1207;-72
2023/04/02 02:32:16;;;;;;;;;;;;;;;;;;5097323;28;1337;-71
2023/04/02 02:34:45;;;;;;;;;;;;;;;;;;5115785;28;931;-72
2023/04/02 02:37:28;;;;;;;;;;;;;;;;;;5097604;28;1452;-72
2023/04/02 02:39:55;;;;;;;;;;;;;;;;;;5115401;28;971;-72
2023/04/02 02:42:31;;;;;;;;;;;;;;;;;;5096460;28;1893;-72
2023/04/02 02:44:57;;;;;;;;;;;;;;;;;;5097158;28;1190;-72
2023/04/02 02:47:25;;;;;;;;;;;;;;;;;;5115237;28;1006;-72
2023/04/02 02:49:59;;;;;;;;;;;;;;;;;;5115216;28;848;-71
2023/04/02 02:52:26;;;;;;;;;;;;;;;;;;5115897;28;899;-72
2023/04/02 02:55:18;;;;;;;;;;;;;;;;;;5115283;28;749;-71
2023/04/02 02:57:48;;;;;;;;;;;;;;;;;;5058782;28;1473;-72
2023/04/02 03:00:15;;;;;;;;;;;;;;;;;;5097123;28;1255;-72
2023/04/02 03:02:41;;;;;;;;;;;;;;;;;;5097382;28;1902;-71
2023/04/02 03:05:07;;;;;;;;;;;;;;;;;;5115057;28;1049;-71
2023/04/02 03:07:33;;;;;;;;;;;;;;;;;;5115088;28;1057;-71
2023/04/02 03:10:04;;;;;;;;;;;;;;;;;;5082761;28;1217;-71
2023/04/02 03:12:36;;;;;;;;;;;;;;;;;;5115173;28;1378;-72
2023/04/02 03:15:01;;;;;;;;;;;;;;;;;;5107925;28;1404;-72
2023/04/02 03:17:33;;;;;;;;;;;;;;;;;;5114927;28;951;-72
2023/04/02 03:20:19;;;;;;;;;;;;;;;;;;5096601;28;1324;-71
2023/04/02 03:22:51;;;;;;;;;;;;;;;;;;5114431;28;1984;-71
2023/04/02 03:25:35;;;;;;;;;;;;;;;;;;5114924;28;836;-72
2023/04/02 03:28:04;;;;;;;;;;;;;;;;;;5096751;28;1282;-71
2023/04/02 03:30:32;;;;;;;;;;;;;;;;;;5096572;28;1325;-72
2023/04/02 03:33:01;;;;;;;;;;;;;;;;;;5113320;28;1309;-71
2023/04/02 03:35:41;;;;;;;;;;;;;;;;;;5114712;28;812;-72
2023/04/02 03:38:33;;;;;;;;;;;;;;;;;;5114877;28;927;-71
2023/04/02 03:41:02;;;;;;;;;;;;;;;;;;5109833;28;1092;-72
2023/04/02 03:43:33;;;;;;;;;;;;;;;;;;5114621;28;1959;-71
2023/04/02 03:46:07;;;;;;;;;;;;;;;;;;5096604;28;1140;-72
2023/04/02 03:48:56;;;;;;;;;;;;;;;;;;5095978;28;1231;-72
2023/04/02 03:51:21;;;;;;;;;;;;;;;;;;5100539;28;1028;-72
2023/04/02 03:53:47;;;;;;;;;;;;;;;;;;5095652;28;1102;-71
2023/04/02 03:56:21;;;;;;;;;;;;;;;;;;5114476;28;983;-71
2023/04/02 03:58:52;;;;;;;;;;;;;;;;;;5114300;28;864;-71
2023/04/02 04:01:50;;;;;;;;;;;;;;;;;;5113550;28;1159;-71
2023/04/02 04:04:17;;;;;;;;;;;;;;;;;;5040414;28;1914;-70
2023/04/02 04:06:44;;;;;;;;;;;;;;;;;;5095401;28;1231;-71
2023/04/02 04:09:09;;;;;;;;;;;;;;;;;;5113972;28;924;-71
2023/04/02 04:11:37;;;;;;;;;;;;;;;;;;5114040;28;860;-70
2023/04/02 04:14:08;;;;;;;;;;;;;;;;;;5114008;28;904;-70
2023/04/02 04:16:46;;;;;;;;;;;;;;;;;;5095394;28;1218;-71
2023/04/02 04:19:18;;;;;;;;;;;;;;;;;;5095703;28;1536;-71
2023/04/02 04:21:45;;;;;;;;;;;;;;;;;;5095386;28;1190;-70
2023/04/02 04:24:19;;;;;;;;;;;;;;;;;;5095723;28;2012;-71
2023/04/02 04:27:03;;;;;;;;;;;;;;;;;;5094863;28;1297;-71
2023/04/02 04:29:31;;;;;;;;;;;;;;;;;;5095571;28;1454;-71
2023/04/02 04:31:57;;;;;;;;;;;;;;;;;;5113731;28;946;-71
2023/04/02 04:34:30;;;;;;;;;;;;;;;;;;5095461;28;1282;-72
2023/04/02 04:37:00;;;;;;;;;;;;;;;;;;5095093;28;1218;-71
2023/04/02 04:39:33;;;;;;;;;;;;;;;;;;5112357;28;1210;-71
2023/04/02 04:41:59;;;;;;;;;;;;;;;;;;5095376;28;1325;-71
2023/04/02 04:44:36;;;;;;;;;;;;;;;;;;5113455;28;1968;-71
2023/04/02 04:47:14;;;;;;;;;;;;;;;;;;5094847;28;1157;-71
2023/04/02 04:49:43;;;;;;;;;;;;;;;;;;5095290;28;1229;-71
2023/04/02 04:52:25;;;;;;;;;;;;;;;;;;5095273;28;1210;-72
2023/04/02 04:54:51;;;;;;;;;;;;;;;;;;5094968;28;1408;-71
2023/04/02 04:57:28;;;;;;;;;;;;;;;;;;5113576;28;876;-71
2023/04/02 05:00:01;;;;;;;;;;;;;;;;;;5113407;28;1018;-71
2023/04/02 05:02:32;;;;;;;;;;;;;;;;;;5094602;28;1914;-72
2023/04/02 05:04:59;;;;;;;;;;;;;;;;;;5112999;28;1226;-72
2023/04/02 05:07:27;;;;;;;;;;;;;;;;;;5116045;28;991;-72
2023/04/02 05:09:52;;;;;;;;;;;;;;;;;;5116998;28;918;-72
2023/04/02 05:12:26;;;;;;;;;;;;;;;;;;5099277;28;1223;-72
2023/04/02 05:15:03;;;;;;;;;;;;;;;;;;5098834;28;1187;-72
2023/04/02 05:17:52;;;;;;;;;;;;;;;;;;5117180;28;1084;-72
2023/04/02 05:20:24;;;;;;;;;;;;;;;;;;5085755;28;1256;-72
2023/04/02 05:22:53;;;;;;;;;;;;;;;;;;5098625;28;1910;-72
2023/04/02 05:25:26;;;;;;;;;;;;;;;;;;5116817;28;947;-72
2023/04/02 05:27:51;;;;;;;;;;;;;;;;;;5116922;28;896;-72
2023/04/02 05:30:23;;;;;;;;;;;;;;;;;;5098930;28;1397;-73
2023/04/02 05:33:07;;;;;;;;;;;;;;;;;;5117026;28;801;-72
2023/04/02 05:35:40;;;;;;;;;;;;;;;;;;5116762;28;836;-73
2023/04/02 05:38:05;;;;;;;;;;;;;;;;;;5098703;28;1338;-72
2023/04/02 05:40:40;;;;;;;;;;;;;;;;;;5098958;28;1140;-72
2023/04/02 05:43:09;;;;;;;;;;;;;;;;;;5115556;28;1910;-72
2023/04/02 05:45:37;;;;;;;;;;;;;;;;;;5117156;28;872;-72
2023/04/02 05:48:06;;;;;;;;;;;;;;;;;;5115154;28;1223;-72
2023/04/02 05:50:35;;;;;;;;;;;;;;;;;;5117096;28;951;-72
2023/04/02 05:53:18;;;;;;;;;;;;;;;;;;5116739;28;773;-72
2023/04/02 05:55:56;;;;;;;;;;;;;;;;;;5099104;28;1734;-72
2023/04/02 05:58:21;;;;;;;;;;;;;;;;;;5098512;28;1361;-66
2023/04/02 06:00:53;;;;;;;;;;;;;;;;;;5116398;28;1042;-66
2023/04/02 06:03:31;;;;;;;;;;;;;;;;;;5116932;28;1964;-67
2023/04/02 06:05:59;;;;;;;;;;;;;;;;;;5097066;28;1305;-65
2023/04/02 06:08:40;;;;;;;;;;;;;;;;;;5096846;28;1160;-65
2023/04/02 06:11:05;;;;;;;;;;;;;;;;;;5096523;28;1361;-66
2023/04/02 06:13:30;;;;;;;;;;;;;;;;;;5096882;28;1095;-66
2023/04/02 06:15:56;;;;;;;;;;;;;;;;;;5096531;28;971;-67
2023/04/02 06:18:26;;;;;;;;;;;;;;;;;;5096807;28;847;-67
2023/04/02 06:20:51;;;;;;;;;;;;;;;;;;5096361;28;1247;-67
2023/04/02 06:23:37;;;;;;;;;;;;;;;;;;5114355;28;1907;-67
2023/04/02 06:26:04;;;;;;;;;;;;;;;;;;5096655;28;1218;-67
2023/04/02 06:29:02;;;;;;;;;;;;;;;;;;5114425;28;828;-67
2023/04/02 06:31:37;;;;;;;;;;;;;;;;;;5052145;28;1452;-67
2023/04/02 06:34:05;;;;;;;;;;;;;;;;;;5114042;28;979;-67
2023/04/02 06:36:31;;;;;;;;;;;;;;;;;;5114496;28;899;-66
2023/04/02 06:39:01;;;;;;;;;;;;;;;;;;5115285;28;906;-66
2023/04/02 06:41:27;;;;;;;;;;;;;;;;;;5096522;28;1326;-67
2023/04/02 06:44:05;;;;;;;;;;;;;;;;;;5095915;28;1957;-66
2023/04/02 06:46:51;;;;;;;;;;;;;;;;;;5117562;28;864;-66
2023/04/02 06:49:16;;;;;;;;;;;;;;;;;;5098174;28;1194;-66
2023/04/02 06:51:43;;;;;;;;;;;;;;;;;;5115096;28;1026;-66
2023/04/02 06:54:17;;;;;;;;;;;;;;;;;;5115067;28;927;-66
2023/04/02 06:56:53;;;;;;;;;;;;;;;;;;5096509;28;1191;-67
2023/04/02 06:59:19;;;;;;;;;;;;;;;;;;5114602;28;868;-66
2023/04/02 07:01:56;;;;;;;;;;;;;;;;;;5096416;28;1406;-66
2023/04/02 07:04:22;;;;;;;;;;;;;;;;;;5114421;28;1901;-66
2023/04/02 07:06:47;;;;;;;;;;;;;;;;;;5070772;28;1222931;-66
2023/04/02 07:09:12;;;;;;;;;;;;;;;;;;5095984;28;1421;-66
2023/04/02 07:11:37;;;;;;;;;;;;;;;;;;5112982;28;1176;-66
2023/04/02 07:14:03;;;;;;;;;;;;;;;;;;5095971;28;1465;-66
2023/04/02 07:16:30;;;;;;;;;;;;;;;;;;5114401;28;796;-67
2023/04/02 07:18:57;;;;;;;;;;;;;;;;;;5095704;28;1254;-66
2023/04/02 07:21:23;;;;;;;;;;;;;;;;;;5114269;28;880;-66
2023/04/02 07:23:48;;;;;;;;;;;;;;;;;;5096108;28;1906;-67
2023/04/02 07:26:15;;;;;;;;;;;;;;;;;;5095431;28;1003;-66
2023/04/02 07:28:41;;;;;;;;;;;;;;;;;;5095851;28;1334;-66
2023/04/02 07:31:16;;;;;;;;;;;;;;;;;;5113959;28;876;-66
2023/04/02 07:33:42;;;;;;;;;;;;;;;;;;5114939;28;903;-66
2023/04/02 07:36:12;;;;;;;;;;;;;;;;;;5096326;28;881;-66
2023/04/02 07:38:37;;;;;;;;;;;;;;;;;;5096520;28;1314;-66
2023/04/02 07:41:06;;;;;;;;;;;;;;;;;;5078947;28;1499;-66
2023/04/02 07:43:31;;;;;;;;;;;;;;;;;;5096279;28;1980;-66
2023/04/02 07:45:57;;;;;;;;;;;;;;;;;;5095739;28;964;-66
2023/04/02 07:48:22;;;;;;;;;;;;;;;;;;5112943;28;1298;-66
2023/04/02 07:50:47;;;;;;;;;;;;;;;;;;5095956;28;1298;-66
2023/04/02 07:53:28;;;;;;;;;;;;;;;;;;5095109;28;1339;-66
2023/04/02 07:55:54;;;;;;;;;;;;;;;;;;5095614;28;1202;-66
2023/04/02 07:58:20;;;;;;;;;;;;;;;;;;5095681;28;1341;-66
2023/04/02 08:00:45;;;;;;;;;;;;;;;;;;5114021;28;852;-66
2023/04/02 08:03:11;;;;;;;;;;;;;;;;;;5077260;28;1902;-65
2023/04/02 08:05:37;;;;;;;;;;;;;;;;;;5094237;28;1237;-65
2023/04/02 08:08:02;;;;;;;;;;;;;;;;;;5077312;28;1182;-66
2023/04/02 08:10:27;;;;;;;;;;;;;;;;;;5094913;28;927;-65
2023/04/02 08:12:52;;;;;;;;;;;;;;;;;;5095468;28;1207;-67
2023/04/02 08:15:18;;;;;;;;;;;;;;;;;;5114183;28;828;-65
2023/04/02 08:17:45;;;;;;;;;;;;;;;;;;5113778;28;860;-65
2023/04/02 08:20:14;;;;;;;;;;;;;;;;;;5114421;28;1082;-66
2023/04/02 08:22:40;;;;;;;;;;;;;;;;;;5114639;28;1914;-66
2023/04/02 08:25:05;;;;;;;;;;;;;;;;;;5114162;28;832;-65
2023/04/02 08:27:31;;;;;;;;;;;;;;;;;;5114422;28;829;-65
2023/04/02 08:29:56;;;;;;;;;;;;;;;;;;5114503;28;891;-66
2023/04/02 08:32:23;;;;;;;;;;;;;;;;;;5114369;28;876;-65
2023/04/02 08:34:48;;;;;;;;;;;;;;;;;;5096161;28;864;-65
2023/04/02 08:37:14;;;;;;;;;;;;;;;;;;5078791;28;1191;-65
2023/04/02 08:39:40;;;;;;;;;;;;;;;;;;5114037;28;860;-65
2023/04/02 08:42:08;;;;;;;;;;;;;;;;;;5116147;28;915;-66
2023/04/02 08:44:36;;;;;;;;;;;;;;;;;;5100171;28;1955;-68
2023/04/02 08:47:06;;;;;;;;;;;;;;;;;;5100181;28;1250;-66
2023/04/02 08:49:38;;;;;;;;;;;;;;;;;;5099809;28;1294;-66
2023/04/02 08:52:04;;;;;;;;;;;;;;;;;;5099683;28;1297;-66
2023/04/02 08:54:36;;;;;;;;;;;;;;;;;;5118065;28;837;-66
2023/04/02 08:57:20;;;;;;;;;;;;;;;;;;5118618;28;847;-66
2023/04/02 08:59:46;;;;;;;;;;;;;;;;;;5100223;28;1258;-69
2023/04/02 09:02:12;;;;;;;;;;;;;;;;;;5099451;28;1270;-69
2023/04/02 09:04:37;;;;;;;;;;;;;;;;;;5099884;28;1905;-69
2023/04/02 09:07:02;;;;;;;;;;;;;;;;;;5099054;28;1292;-69
2023/04/02 09:09:31;;;;;;;;;;;;;;;;;;5099001;28;1134;-68
2023/04/02 09:12:00;;;;;;;;;;;;;;;;;;5118454;28;801;-68
2023/04/02 09:14:40;;;;;;;;;;;;;;;;;;5099112;28;1376;-68
2023/04/02 09:17:13;;;;;;;;;;;;;;;;;;5117091;28;918;-68
2023/04/02 09:19:43;;;;;;;;;;;;;;;;;;5116969;28;911;-68
2023/04/02 09:22:22;;;;;;;;;;;;;;;;;;5117213;28;1000;-68
2023/04/02 09:24:52;;;;;;;;;;;;;;;;;;5117230;28;1918;-68
2023/04/02 09:27:18;;;;;;;;;;;;;;;;;;5098676;28;1373;-68
2023/04/02 09:29:48;;;;;;;;;;;;;;;;;;5116855;28;958;-68
2023/04/02 09:32:13;;;;;;;;;;;;;;;;;;5098380;28;1182;-69
2023/04/02 09:34:39;;;;;;;;;;;;;;;;;;5117207;28;1007;-71
2023/04/02 09:37:08;;;;;;;;;;;;;;;;;;5082479;28;1226;-70
2023/04/02 09:39:34;;;;;;;;;;;;;;;;;;5098219;28;1250;-66
2023/04/02 09:42:04;;;;;;;;;;;;;;;;;;5098384;28;944;-65
2023/04/02 09:44:30;;;;;;;;;;;;;;;;;;5097414;28;1906;-65
2023/04/02 09:47:02;;;;;;;;;;;;;;;;;;5116674;28;844;-72
2023/04/02 09:49:29;;;;;;;;;;;;;;;;;;5116262;28;891;-72
2023/04/02 09:52:16;;;;;;;;;;;;;;;;;;5098299;28;1334;-72
2023/04/02 09:54:42;;;;;;;;;;;;;;;;;;5099696;28;1289;-71
2023/04/02 09:57:23;;;;;;;;;;;;;;;;;;5098384;28;1313;-71
2023/04/02 10:00:10;;;;;;;;;;;;;;;;;;5098601;28;1243;-68
2023/04/02 10:02:36;;;;;;;;;;;;;;;;;;5097817;28;1957;-70
2023/04/02 10:05:02;;;;;;;;;;;;;;;;;;5098643;28;1167;-71
2023/04/02 10:07:34;;;;;;;;;;;;;;;;;;5117007;28;1062;-70
2023/04/02 10:10:01;;;;;;;;;;;;;;;;;;5099567;28;1507;-72
2023/04/02 10:12:28;;;;;;;;;;;;;;;;;;5117084;28;923;-71
2023/04/02 10:14:54;;;;;;;;;;;;;;;;;;5099340;28;1305;-70
2023/04/02 10:17:31;;;;;;;;;;;;;;;;;;5104968;28;1316;-68
2023/04/02 10:20:05;;;;;;;;;;;;;;;;;;5129781;28;1002;-68
2023/04/02 10:22:30;;;;;;;;;;;;;;;;;;5100847;28;1378;-69
2023/04/02 10:24:58;;;;;;;;;;;;;;;;;;5119086;28;860;-68
2023/04/02 10:27:42;;;;;;;;;;;;;;;;;;5120716;28;900;-69
2023/04/02 10:30:14;;;;;;;;;;;;;;;;;;5107007;28;1453;-70
2023/04/02 10:32:45;;;;;;;;;;;;;;;;;;5119944;28;1015;-70
2023/04/02 10:35:11;;;;;;;;;;;;;;;;;;5117353;28;844;-69
2023/04/02 10:37:48;;;;;;;;;;;;;;;;;;5116559;28;913;-69
2023/04/02 10:40:22;;;;;;;;;;;;;;;;;;5116308;28;884;-68
2023/04/02 10:42:57;;;;;;;;;;;;;;;;;;5097673;28;1968;-69
2023/04/02 10:45:34;;;;;;;;;;;;;;;;;;5097748;28;1204;-66
2023/04/02 10:48:05;;;;;;;;;;;;;;;;;;5098275;28;1348;-70
2023/04/02 10:50:48;;;;;;;;;;;;;;;;;;5095409;28;1452;-69
2023/04/02 10:53:19;;;;;;;;;;;;;;;;;;5096648;28;1333;-69
2023/04/02 10:55:47;;;;;;;;;;;;;;;;;;5097098;28;1131;-69
2023/04/02 10:58:21;;;;;;;;;;;;;;;;;;5115507;28;1065;-69
2023/04/02 11:00:46;;;;;;;;;;;;;;;;;;5115159;28;1085;-70
2023/04/02 11:03:25;;;;;;;;;;;;;;;;;;5115515;28;1890;-69
2023/04/02 11:05:52;;;;;;;;;;;;;;;;;;5114542;28;1239;-69
2023/04/02 11:08:21;;;;;;;;;;;;;;;;;;5096759;28;1309;-70
2023/04/02 11:10:52;;;;;;;;;;;;;;;;;;5096304;28;1244;-69
2023/04/02 11:13:46;;;;;;;;;;;;;;;;;;5114469;28;841;-69
2023/04/02 11:16:15;;;;;;;;;;;;;;;;;;5092461;28;1165;-69
2023/04/02 11:18:40;;;;;;;;;;;;;;;;;;5096404;28;870;-70
2023/04/02 11:21:05;;;;;;;;;;;;;;;;;;5096635;28;923;-70
2023/04/02 11:23:35;;;;;;;;;;;;;;;;;;5095832;28;1905;-69
2023/04/02 11:26:20;;;;;;;;;;;;;;;;;;5114489;28;868;-69
2023/04/02 11:28:46;;;;;;;;;;;;;;;;;;5114141;28;884;-70
2023/04/02 11:31:18;;;;;;;;;;;;;;;;;;5079409;28;1132;-70
2023/04/02 11:33:43;;;;;;;;;;;;;;;;;;5114063;28;849;-69
2023/04/02 11:36:28;;;;;;;;;;;;;;;;;;5096076;28;1245;-69
2023/04/02 11:38:54;;;;;;;;;;;;;;;;;;5095720;28;1215;-70
2023/04/02 11:41:55;;;;;;;;;;;;;;;;;;5114278;28;895;-69
2023/04/02 11:44:24;;;;;;;;;;;;;;;;;;5095191;28;1947;-70
2023/04/02 11:46:50;;;;;;;;;;;;;;;;;;5114725;28;800;-69
2023/04/02 11:49:45;;;;;;;;;;;;;;;;;;5096098;28;1258;-70
2023/04/02 11:52:21;;;;;;;;;;;;;;;;;;5074695;28;1287;-70
2023/04/02 11:54:56;;;;;;;;;;;;;;;;;;5095958;28;1359;-69
2023/04/02 11:57:31;;;;;;;;;;;;;;;;;;5113978;28;871;-70
2023/04/02 12:00:19;;;;;;;;;;;;;;;;;;5114239;28;848;-69
2023/04/02 12:02:51;;;;;;;;;;;;;;;;;;5113312;28;1966;-69
2023/04/02 12:05:42;;;;;;;;;;;;;;;;;;5095319;28;1397;-70
2023/04/02 12:08:21;;;;;;;;;;;;;;;;;;5074995;28;1197;-69
2023/04/02 12:10:50;;;;;;;;;;;;;;;;;;5095629;28;1100;-70
2023/04/02 12:13:41;;;;;;;;;;;;;;;;;;5114197;28;863;-70
2023/04/02 12:16:08;;;;;;;;;;;;;;;;;;5090850;28;1391;-69
2023/04/02 12:18:47;;;;;;;;;;;;;;;;;;5095467;28;1202;-69
2023/04/02 12:21:16;;;;;;;;;;;;;;;;;;5113802;28;895;-70
2023/04/02 12:24:02;;;;;;;;;;;;;;;;;;5113870;28;1921;-70
2023/04/02 12:26:36;;;;;;;;;;;;;;;;;;5094613;28;1457;-70
2023/04/02 12:29:14;;;;;;;;;;;;;;;;;;5095980;28;1306;-70
2023/04/02 12:31:44;;;;;;;;;;;;;;;;;;5095207;28;1346;-68
2023/04/02 12:34:17;;;;;;;;;;;;;;;;;;5114306;28;841;-69
2023/04/02 12:37:01;;;;;;;;;;;;;;;;;;5112877;28;836;-69
2023/04/02 12:39:27;;;;;;;;;;;;;;;;;;5113311;28;884;-69
2023/04/02 12:41:52;;;;;;;;;;;;;;;;;;5094656;28;1298;-69
2023/04/02 12:44:20;;;;;;;;;;;;;;;;;;5113225;28;1901;-69
2023/04/02 12:46:46;;;;;;;;;;;;;;;;;;5113102;28;859;-68
2023/04/02 12:49:21;;;;;;;;;;;;;;;;;;5094830;28;1320;-69
2023/04/02 12:51:50;;;;;;;;;;;;;;;;;;5112636;28;1001;-69
2023/04/02 12:54:16;;;;;;;;;;;;;;;;;;5078418;28;1393;-69
2023/04/02 12:56:42;;;;;;;;;;;;;;;;;;5094788;28;1381;-69
2023/04/02 12:59:30;;;;;;;;;;;;;;;;;;5112940;28;911;-69
2023/04/02 13:02:00;;;;;;;;;;;;;;;;;;5095201;28;1357;-69
2023/04/02 13:04:26;;;;;;;;;;;;;;;;;;5112853;28;1917;-69
2023/04/02 13:06:53;;;;;;;;;;;;;;;;;;5069680;28;1341;-69
2023/04/02 13:09:38;;;;;;;;;;;;;;;;;;5072718;28;1576;-70
2023/04/02 13:12:04;;;;;;;;;;;;;;;;;;5091612;28;805;-68
2023/04/02 13:14:30;;;;;;;;;;;;;;;;;;5074307;28;1406;-69
2023/04/02 13:16:55;;;;;;;;;;;;;;;;;;5074193;28;1262;-69
2023/04/02 13:19:23;;;;;;;;;;;;;;;;;;5074632;28;1616;-69
2023/04/02 13:21:48;;;;;;;;;;;;;;;;;;5073980;28;1164;-69
2023/04/02 13:24:21;;;;;;;;;;;;;;;;;;5091594;28;1926;-68
2023/04/02 13:26:48;;;;;;;;;;;;;;;;;;5092333;28;822;-68
2023/04/02 13:29:13;;;;;;;;;;;;;;;;;;5096044;28;868;-68
2023/04/02 13:31:39;;;;;;;;;;;;;;;;;;5077811;28;1176;-69
2023/04/02 13:34:04;;;;;;;;;;;;;;;;;;5096044;28;778;-69
2023/04/02 13:36:30;;;;;;;;;;;;;;;;;;5096027;28;812;-69
2023/04/02 13:38:55;;;;;;;;;;;;;;;;;;5095095;28;903;-69
2023/04/02 13:41:26;;;;;;;;;;;;;;;;;;5096367;28;875;-69
2023/04/02 13:43:55;;;;;;;;;;;;;;;;;;5096000;28;1985;-69
2023/04/02 13:46:21;;;;;;;;;;;;;;;;;;5077961;28;1381;-69
2023/04/02 13:48:48;;;;;;;;;;;;;;;;;;5076699;28;1354;-69
2023/04/02 13:51:15;;;;;;;;;;;;;;;;;;5090173;28;1325;-69
2023/04/02 13:53:41;;;;;;;;;;;;;;;;;;5100087;28;1065;-68
2023/04/02 13:56:07;;;;;;;;;;;;;;;;;;5095358;28;821;-69
2023/04/02 13:58:32;;;;;;;;;;;;;;;;;;5094565;28;914;-68
2023/04/02 14:00:58;;;;;;;;;;;;;;;;;;5093536;28;947;-68
2023/04/02 14:03:23;;;;;;;;;;;;;;;;;;5075375;28;1913;-68
2023/04/02 14:05:57;;;;;;;;;;;;;;;;;;5076356;28;1291;-68
2023/04/02 14:08:38;;;;;;;;;;;;;;;;;;5077029;28;1164;-68
2023/04/02 14:11:11;;;;;;;;;;;;;;;;;;5076742;28;1377;-68
2023/04/02 14:14:00;;;;;;;;;;;;;;;;;;5076690;28;1294;-68
2023/04/02 14:16:34;;;;;;;;;;;;;;;;;;5094904;28;876;-68
2023/04/02 14:19:09;;;;;;;;;;;;;;;;;;5094854;28;911;-68
2023/04/02 14:22:01;;;;;;;;;;;;;;;;;;5076256;28;1255;-68
2023/04/02 14:24:29;;;;;;;;;;;;;;;;;;5076540;28;1913;-68
2023/04/02 14:26:54;;;;;;;;;;;;;;;;;;5094534;28;880;-68
2023/04/02 14:29:24;;;;;;;;;;;;;;;;;;5077072;28;1227;-69
2023/04/02 14:31:58;;;;;;;;;;;;;;;;;;5076144;28;1270;-68
2023/04/02 14:34:23;;;;;;;;;;;;;;;;;;5076398;28;1405;-68
2023/04/02 14:36:58;;;;;;;;;;;;;;;;;;5094006;28;888;-68
2023/04/02 14:39:26;;;;;;;;;;;;;;;;;;5093324;28;840;-68
2023/04/02 14:41:57;;;;;;;;;;;;;;;;;;5093942;28;876;-68
2023/04/02 14:44:25;;;;;;;;;;;;;;;;;;5094114;28;1922;-68
2023/04/02 14:46:56;;;;;;;;;;;;;;;;;;5075727;28;1188;-68
2023/04/02 14:49:24;;;;;;;;;;;;;;;;;;5076092;28;1401;-68
2023/04/02 14:51:56;;;;;;;;;;;;;;;;;;5075555;28;1337;-69
2023/04/02 14:54:41;;;;;;;;;;;;;;;;;;5075864;28;1272;-69
2023/04/02 14:57:17;;;;;;;;;;;;;;;;;;5094329;28;911;-68
2023/04/02 15:00:01;;;;;;;;;;;;;;;;;;5093849;28;856;-68
2023/04/02 15:02:41;;;;;;;;;;;;;;;;;;5076149;28;1333;-68
2023/04/02 15:05:15;;;;;;;;;;;;;;;;;;5094093;28;1212;-69
2023/04/02 15:08:00;;;;;;;;;;;;;;;;;;5094232;28;905;-68
2023/04/02 15:10:44;;;;;;;;;;;;;;;;;;5083281;28;1652;-68
2023/04/02 15:13:15;;;;;;;;;;;;;;;;;;5076243;28;1187;-68
2023/04/02 15:15:47;;;;;;;;;;;;;;;;;;5076060;28;1227;-68
2023/04/02 15:18:15;;;;;;;;;;;;;;;;;;5094499;28;836;-69
2023/04/02 15:20:52;;;;;;;;;;;;;;;;;;5075991;28;1290;-68
2023/04/02 15:23:17;;;;;;;;;;;;;;;;;;5076024;28;1986;-67
2023/04/02 15:26:03;;;;;;;;;;;;;;;;;;5094176;28;931;-68
2023/04/02 15:28:33;;;;;;;;;;;;;;;;;;5075450;28;1286;-69
2023/04/02 15:31:00;;;;;;;;;;;;;;;;;;5094400;28;891;-68
2023/04/02 15:33:34;;;;;;;;;;;;;;;;;;5094212;28;897;-68
2023/04/02 15:35:59;;;;;;;;;;;;;;;;;;5094079;28;1023;-69
2023/04/02 15:38:32;;;;;;;;;;;;;;;;;;5093876;28;1018;-70
2023/04/02 15:41:06;;;;;;;;;;;;;;;;;;5093400;28;915;-69
2023/04/02 15:43:59;;;;;;;;;;;;;;;;;;5093699;28;1914;-69
2023/04/02 15:46:28;;;;;;;;;;;;;;;;;;5090876;28;1281;-69
2023/04/02 15:49:05;;;;;;;;;;;;;;;;;;5092824;28;931;-69
2023/04/02 15:51:36;;;;;;;;;;;;;;;;;;5093379;28;894;-69
2023/04/02 15:54:09;;;;;;;;;;;;;;;;;;5075228;28;1262;-70
2023/04/02 15:56:50;;;;;;;;;;;;;;;;;;5093033;28;844;-64
2023/04/02 15:59:34;;;;;;;;;;;;;;;;;;5093254;28;883;-69
2023/04/02 16:02:26;;;;;;;;;;;;;;;;;;5074569;28;1234;-69
2023/04/02 16:05:13;;;;;;;;;;;;;;;;;;5074602;28;1918;-69
2023/04/02 16:07:57;;;;;;;;;;;;;;;;;;5093137;28;840;-69
2023/04/02 16:10:27;;;;;;;;;;;;;;;;;;5093302;28;872;-69
2023/04/02 16:12:54;;;;;;;;;;;;;;;;;;5092513;28;872;-69
2023/04/02 16:15:23;;;;;;;;;;;;;;;;;;5075032;28;1259;-69
2023/04/02 16:17:53;;;;;;;;;;;;;;;;;;5092556;28;829;-69
2023/04/02 16:20:23;;;;;;;;;;;;;;;;;;5092835;28;895;-69
2023/04/02 16:23:09;;;;;;;;;;;;;;;;;;5092831;28;1902;-69
2023/04/02 16:25:40;;;;;;;;;;;;;;;;;;5092305;28;1057;-69
2023/04/02 16:28:21;;;;;;;;;;;;;;;;;;5092531;28;833;-68
2023/04/02 16:30:56;;;;;;;;;;;;;;;;;;5092786;28;924;-69
2023/04/02 16:33:37;;;;;;;;;;;;;;;;;;5094401;28;1064;-69
2023/04/02 16:36:13;;;;;;;;;;;;;;;;;;5094300;28;884;-69
2023/04/02 16:38:56;;;;;;;;;;;;;;;;;;5094340;28;978;-68
2023/04/02 16:41:40;;;;;;;;;;;;;;;;;;5076071;28;1200;-69
2023/04/02 16:44:09;;;;;;;;;;;;;;;;;;5093114;28;1890;-69
2023/04/02 16:46:34;;;;;;;;;;;;;;;;;;5092947;28;876;-69
2023/04/02 16:49:08;;;;;;;;;;;;;;;;;;5074646;28;1215;-67
2023/04/02 16:51:33;;;;;;;;;;;;;;;;;;5093027;28;880;-69
2023/04/02 16:54:17;;;;;;;;;;;;;;;;;;5074438;28;1322;-69
2023/04/02 16:56:52;;;;;;;;;;;;;;;;;;5074623;28;1195;-68
2023/04/02 16:59:36;;;;;;;;;;;;;;;;;;5092959;28;825;-69
2023/04/02 17:02:11;;;;;;;;;;;;;;;;;;5075139;28;1241;-68
2023/04/02 17:04:46;;;;;;;;;;;;;;;;;;5078600;28;1964;-67
2023/04/02 17:07:23;;;;;;;;;;;;;;;;;;5096597;28;1077;-67
2023/04/02 17:09:55;;;;;;;;;;;;;;;;;;5078153;28;1305;-67
2023/04/02 17:12:32;;;;;;;;;;;;;;;;;;5078629;28;1314;-67
2023/04/02 17:15:00;;;;;;;;;;;;;;;;;;5078271;28;1290;-66
2023/04/02 17:17:25;;;;;;;;;;;;;;;;;;5096319;28;876;-67
2023/04/02 17:19:54;;;;;;;;;;;;;;;;;;5095973;28;945;-67
2023/04/02 17:22:21;;;;;;;;;;;;;;;;;;5098524;28;995;-68
2023/04/02 17:24:49;;;;;;;;;;;;;;;;;;5104271;28;1882;-68
2023/04/02 17:27:24;;;;;;;;;;;;;;;;;;5080946;28;1060;-70
2023/04/02 17:29:51;;;;;;;;;;;;;;;;;;5096531;28;824;-68
2023/04/02 17:32:20;;;;;;;;;;;;;;;;;;5077920;28;1451;-69
2023/04/02 17:34:46;;;;;;;;;;;;;;;;;;5095903;28;887;-69
2023/04/02 17:37:17;;;;;;;;;;;;;;;;;;5096003;28;982;-69
2023/04/02 17:39:46;;;;;;;;;;;;;;;;;;5096205;28;832;-70